createdAt,value
2022-08-22T00:00:45.459Z,100.00
2022-08-22T00:02:45.442Z,76.01
2022-08-22T00:02:58.608Z,69.30
2022-08-22T00:03:09.503Z,100.00
2022-08-22T00:05:51.479Z,100.00
2022-08-22T00:08:22.985Z,100.00
2022-08-22T00:10:54.835Z,100.00
2022-08-22T00:13:26.344Z,100.00
2022-08-22T00:15:58.196Z,100.00
2022-08-22T00:18:29.711Z,100.00
2022-08-22T00:21:01.553Z,100.00
2022-08-22T00:23:33.267Z,100.00
2022-08-22T00:26:05.187Z,100.00
2022-08-22T00:28:36.938Z,100.00
2022-08-22T00:31:09.080Z,100.00
2022-08-22T00:33:41.049Z,100.00
2022-08-22T00:36:12.887Z,100.00
2022-08-22T00:38:44.395Z,100.00
2022-08-22T00:41:16.599Z,100.00
2022-08-22T00:43:48.172Z,100.00
2022-08-22T00:46:20.012Z,100.00
2022-08-22T00:48:51.568Z,100.00
2022-08-22T00:51:23.415Z,100.00
2022-08-22T00:53:54.934Z,100.00
2022-08-22T00:56:26.778Z,100.00
2022-08-22T00:58:58.379Z,100.00
2022-08-22T01:01:30.467Z,100.00
2022-08-22T01:04:02.008Z,100.00
2022-08-22T01:06:33.814Z,100.00
2022-08-22T01:09:05.465Z,100.00
2022-08-22T01:11:37.366Z,100.00
2022-08-22T01:14:08.896Z,100.00
2022-08-22T01:16:41.054Z,100.00
2022-08-22T01:19:12.633Z,100.00
2022-08-22T01:21:44.512Z,100.00
2022-08-22T01:24:16.080Z,100.00
2022-08-22T01:26:49.313Z,100.00
2022-08-22T01:29:28.416Z,100.00
2022-08-22T01:32:00.588Z,100.00
2022-08-22T01:34:32.447Z,100.00
2022-08-22T01:37:04.493Z,100.00
2022-08-22T01:39:36.043Z,100.00
2022-08-22T01:42:07.931Z,100.00
2022-08-22T01:44:39.464Z,100.00
2022-08-22T01:47:11.441Z,100.00
2022-08-22T01:49:42.955Z,100.00
2022-08-22T01:52:14.806Z,100.00
2022-08-22T01:54:50.993Z,100.00
2022-08-22T01:57:22.846Z,100.00
2022-08-22T01:59:54.504Z,100.00
2022-08-22T02:02:26.346Z,100.00
2022-08-22T02:04:58.190Z,100.00
2022-08-22T02:07:32.211Z,100.00
2022-08-22T02:10:04.237Z,100.00
2022-08-22T02:12:35.742Z,100.00
2022-08-22T02:15:07.528Z,100.00
2022-08-22T02:17:39.048Z,100.00
2022-08-22T02:20:11.007Z,100.00
2022-08-22T02:22:44.611Z,100.00
2022-08-22T02:25:16.819Z,100.00
2022-08-22T02:27:48.348Z,100.00
2022-08-22T02:30:20.193Z,100.00
2022-08-22T02:32:51.713Z,100.00
2022-08-22T02:35:23.784Z,100.00
2022-08-22T02:37:55.485Z,100.00
2022-08-22T02:40:27.448Z,100.00
2022-08-22T02:42:59.008Z,100.00
2022-08-22T02:45:30.892Z,100.00
2022-08-22T02:48:02.418Z,100.00
2022-08-22T02:50:34.268Z,100.00
2022-08-22T02:53:05.790Z,100.00
2022-08-22T02:55:40.038Z,100.00
2022-08-22T02:58:11.887Z,100.00
2022-08-22T03:00:43.901Z,100.00
2022-08-22T03:03:16.228Z,100.00
2022-08-22T03:05:48.439Z,100.00
2022-08-22T03:08:20.081Z,100.00
2022-08-22T03:10:53.654Z,100.00
2022-08-22T03:13:25.182Z,100.00
2022-08-22T03:15:57.049Z,100.00
2022-08-22T03:18:28.646Z,100.00
2022-08-22T03:21:00.597Z,100.00
2022-08-22T03:23:32.164Z,100.00
2022-08-22T03:26:07.700Z,100.00
2022-08-22T03:28:39.703Z,100.00
2022-08-22T03:31:30.883Z,100.00
2022-08-22T03:34:02.402Z,100.00
2022-08-22T03:36:33.987Z,100.00
2022-08-22T03:39:07.262Z,100.00
2022-08-22T03:41:44.206Z,100.00
2022-08-22T03:44:15.734Z,100.00
2022-08-22T03:46:47.661Z,100.00
2022-08-22T03:49:19.495Z,100.00
2022-08-22T03:51:51.072Z,100.00
2022-08-22T03:54:22.633Z,100.00
2022-08-22T03:56:57.544Z,100.00
2022-08-22T03:59:32.063Z,100.00
2022-08-22T04:02:03.650Z,100.00
2022-08-22T04:04:55.771Z,100.00
2022-08-22T04:07:28.180Z,100.00
2022-08-22T04:10:04.382Z,100.00
2022-08-22T04:12:35.934Z,100.00
2022-08-22T04:15:07.775Z,100.00
2022-08-22T04:17:39.303Z,100.00
2022-08-22T04:20:11.263Z,100.00
2022-08-22T04:22:42.769Z,100.00
2022-08-22T04:25:14.612Z,100.00
2022-08-22T04:27:46.327Z,100.00
2022-08-22T04:30:18.315Z,100.00
2022-08-22T04:32:50.023Z,100.00
2022-08-22T04:35:21.895Z,100.00
2022-08-22T04:37:53.429Z,100.00
2022-08-22T04:40:25.531Z,100.00
2022-08-22T04:42:57.109Z,100.00
2022-08-22T04:45:29.523Z,100.00
2022-08-22T04:48:01.082Z,100.00
2022-08-22T04:50:34.275Z,100.00
2022-08-22T04:53:05.919Z,100.00
2022-08-22T04:55:37.863Z,100.00
2022-08-22T04:58:09.441Z,100.00
2022-08-22T05:00:41.487Z,100.00
2022-08-22T05:03:13.076Z,100.00
2022-08-22T05:05:44.653Z,100.00
2022-08-22T05:08:16.179Z,100.00
2022-08-22T05:10:48.477Z,100.00
2022-08-22T05:13:20.004Z,100.00
2022-08-22T05:15:51.998Z,100.00
2022-08-22T05:18:23.533Z,100.00
2022-08-22T05:20:57.899Z,100.00
2022-08-22T05:23:29.490Z,100.00
2022-08-22T05:26:01.026Z,100.00
2022-08-22T05:28:33.679Z,100.00
2022-08-22T05:31:05.225Z,100.00
2022-08-22T05:33:36.935Z,100.00
2022-08-22T05:36:11.494Z,100.00
2022-08-22T05:38:43.007Z,100.00
2022-08-22T05:41:14.553Z,100.00
2022-08-22T05:43:46.338Z,99.21
2022-08-22T05:46:18.176Z,97.27
2022-08-22T05:48:49.731Z,96.95
2022-08-22T05:51:22.074Z,95.87
2022-08-22T05:53:53.588Z,96.11
2022-08-22T05:56:26.343Z,94.96
2022-08-22T05:58:59.997Z,92.75
2022-08-22T06:01:31.685Z,90.98
2022-08-22T06:04:04.350Z,89.57
2022-08-22T06:06:35.898Z,89.77
2022-08-22T06:09:07.436Z,87.98
2022-08-22T06:11:39.008Z,88.12
2022-08-22T06:14:10.671Z,88.02
2022-08-22T06:16:47.578Z,85.49
2022-08-22T06:19:20.537Z,85.06
2022-08-22T06:21:52.084Z,83.06
2022-08-22T06:24:24.746Z,82.25
2022-08-22T06:26:56.765Z,80.75
2022-08-22T06:29:28.334Z,78.59
2022-08-22T06:31:59.887Z,79.58
2022-08-22T06:34:31.425Z,80.30
2022-08-22T06:37:03.330Z,79.11
2022-08-22T06:39:34.902Z,78.41
2022-08-22T06:42:11.155Z,76.06
2022-08-22T06:44:44.872Z,75.90
2022-08-22T06:47:16.781Z,74.12
2022-08-22T06:49:48.623Z,75.15
2022-08-22T06:52:20.170Z,76.94
2022-08-22T06:54:52.434Z,74.75
2022-08-22T06:57:23.980Z,73.39
2022-08-22T06:59:55.520Z,67.52
2022-08-22T07:02:27.472Z,67.33
2022-08-22T07:04:59.595Z,69.80
2022-08-22T07:07:31.409Z,67.36
2022-08-22T07:10:03.284Z,65.54
2022-08-22T07:12:35.658Z,64.25
2022-08-22T07:15:07.606Z,63.86
2022-08-22T07:17:40.733Z,64.81
2022-08-22T07:20:12.349Z,65.62
2022-08-22T07:22:43.876Z,64.80
2022-08-22T07:25:15.672Z,65.34
2022-08-22T07:27:48.964Z,65.83
2022-08-22T07:30:27.892Z,64.29
2022-08-22T07:33:21.073Z,65.13
2022-08-22T07:35:53.448Z,62.84
2022-08-22T07:38:25.375Z,62.93
2022-08-22T07:40:57.396Z,61.69
2022-08-22T07:43:29.282Z,62.00
2022-08-22T07:46:00.798Z,61.21
2022-08-22T07:48:33.489Z,60.90
2022-08-22T07:51:05.362Z,60.11
2022-08-22T07:53:36.909Z,57.92
2022-08-22T07:56:08.480Z,57.35
2022-08-22T07:58:40.031Z,57.97
2022-08-22T08:01:11.647Z,54.54
2022-08-22T08:03:43.588Z,55.82
2022-08-22T08:06:15.418Z,55.48
2022-08-22T08:08:47.301Z,53.91
2022-08-22T08:11:18.962Z,53.76
2022-08-22T08:13:50.822Z,53.62
2022-08-22T08:16:22.374Z,52.04
2022-08-22T08:18:54.268Z,50.79
2022-08-22T08:21:25.980Z,50.93
2022-08-22T08:23:58.025Z,50.99
2022-08-22T08:26:29.616Z,49.82
2022-08-22T08:29:01.437Z,49.83
2022-08-22T08:31:35.265Z,48.90
2022-08-22T08:34:07.181Z,48.42
2022-08-22T08:36:38.792Z,47.58
2022-08-22T08:39:14.061Z,48.03
2022-08-22T08:41:45.600Z,48.06
2022-08-22T08:44:17.522Z,48.92
2022-08-22T08:46:55.922Z,47.58
2022-08-22T08:49:29.745Z,48.25
2022-08-22T08:52:05.130Z,48.68
2022-08-22T08:54:36.691Z,48.10
2022-08-22T08:57:08.206Z,48.15
2022-08-22T08:59:44.186Z,47.13
2022-08-22T09:02:20.359Z,47.88
2022-08-22T09:04:52.281Z,47.08
2022-08-22T09:07:23.818Z,47.45
2022-08-22T09:09:55.911Z,47.29
2022-08-22T09:12:27.926Z,47.42
2022-08-22T09:14:59.613Z,47.39
2022-08-22T09:17:32.079Z,47.41
2022-08-22T09:20:17.829Z,47.47
2022-08-22T09:22:51.409Z,47.19
2022-08-22T09:25:23.665Z,46.58
2022-08-22T09:27:55.688Z,45.13
2022-08-22T09:30:27.703Z,46.22
2022-08-22T09:33:00.995Z,45.20
2022-08-22T09:35:32.531Z,46.65
2022-08-22T09:38:04.445Z,46.25
2022-08-22T09:40:36.192Z,45.57
2022-08-22T09:43:08.826Z,46.97
2022-08-22T09:45:42.926Z,45.02
2022-08-22T09:48:14.664Z,45.56
2022-08-22T09:50:46.763Z,45.29
2022-08-22T09:53:19.032Z,46.27
2022-08-22T09:55:50.537Z,44.77
2022-08-22T09:58:23.619Z,45.07
2022-08-22T10:00:55.636Z,44.80
2022-08-22T10:03:28.191Z,44.67
2022-08-22T10:06:02.034Z,44.46
2022-08-22T10:08:37.300Z,43.80
2022-08-22T10:11:09.350Z,44.17
2022-08-22T10:13:41.461Z,43.44
2022-08-22T10:16:13.418Z,44.05
2022-08-22T10:18:52.854Z,43.30
2022-08-22T10:21:26.954Z,42.18
2022-08-22T10:24:01.028Z,42.32
2022-08-22T10:26:37.858Z,40.72
2022-08-22T10:29:10.242Z,40.89
2022-08-22T10:31:58.768Z,41.06
2022-08-22T10:34:31.219Z,43.30
2022-08-22T10:37:02.767Z,42.61
2022-08-22T10:39:34.344Z,42.33
2022-08-22T10:42:05.986Z,40.89
2022-08-22T10:44:37.873Z,41.73
2022-08-22T10:47:09.915Z,42.09
2022-08-22T10:49:42.449Z,40.81
2022-08-22T10:52:15.911Z,39.63
2022-08-22T10:54:51.267Z,41.29
2022-08-22T10:57:23.482Z,40.21
2022-08-22T10:59:55.182Z,39.24
2022-08-22T11:02:27.053Z,40.71
2022-08-22T11:04:58.636Z,38.06
2022-08-22T11:07:31.168Z,38.21
2022-08-22T11:10:02.722Z,38.39
2022-08-22T11:12:35.460Z,36.20
2022-08-22T11:15:07.500Z,35.76
2022-08-22T11:17:44.780Z,36.47
2022-08-22T11:20:25.558Z,35.96
2022-08-22T11:22:57.243Z,35.75
2022-08-22T11:25:38.762Z,37.54
2022-08-22T11:28:11.058Z,36.70
2022-08-22T11:30:44.270Z,36.65
2022-08-22T11:33:18.006Z,37.21
2022-08-22T11:35:49.655Z,38.78
2022-08-22T11:38:28.065Z,37.22
2022-08-22T11:41:05.459Z,38.77
2022-08-22T11:43:37.194Z,39.15
2022-08-22T11:46:09.025Z,38.61
2022-08-22T11:48:41.736Z,39.79
2022-08-22T11:51:24.968Z,40.17
2022-08-22T11:53:56.769Z,41.56
2022-08-22T11:56:29.230Z,42.06
2022-08-22T11:59:01.373Z,41.69
2022-08-22T12:01:34.305Z,41.29
2022-08-22T12:04:06.104Z,41.70
2022-08-22T12:06:43.117Z,41.08
2022-08-22T12:09:14.843Z,40.27
2022-08-22T12:11:49.923Z,41.70
2022-08-22T12:14:21.489Z,40.18
2022-08-22T12:16:58.728Z,39.79
2022-08-22T12:19:32.930Z,39.82
2022-08-22T12:22:04.934Z,40.70
2022-08-22T12:24:39.080Z,40.50
2022-08-22T12:27:13.121Z,40.29
2022-08-22T12:29:50.002Z,39.55
2022-08-22T12:32:27.867Z,39.61
2022-08-22T12:34:59.722Z,41.86
2022-08-22T12:37:33.121Z,40.79
2022-08-22T12:40:26.301Z,40.31
2022-08-22T12:42:59.197Z,39.67
2022-08-22T12:45:30.758Z,40.60
2022-08-22T12:48:02.525Z,40.64
2022-08-22T12:50:34.152Z,40.63
2022-08-22T12:53:06.408Z,40.13
2022-08-22T12:55:38.970Z,38.23
2022-08-22T12:58:11.545Z,39.12
2022-08-22T13:00:45.443Z,41.01
2022-08-22T13:03:17.156Z,39.90
2022-08-22T13:05:56.860Z,39.72
2022-08-22T13:08:31.450Z,38.95
2022-08-22T13:11:03.366Z,39.12
2022-08-22T13:13:41.301Z,38.33
2022-08-22T13:16:13.168Z,38.34
2022-08-22T13:18:45.159Z,37.56
2022-08-22T13:21:17.100Z,37.75
2022-08-22T13:23:53.168Z,37.74
2022-08-22T13:26:31.864Z,38.65
2022-08-22T13:29:26.108Z,38.76
2022-08-22T13:32:00.680Z,39.11
2022-08-22T13:34:34.834Z,40.77
2022-08-22T13:37:11.757Z,41.49
2022-08-22T13:39:43.296Z,41.76
2022-08-22T13:42:27.688Z,40.83
2022-08-22T13:45:04.888Z,41.51
2022-08-22T13:47:39.307Z,42.83
2022-08-22T13:50:11.344Z,42.71
2022-08-22T13:52:43.247Z,42.65
2022-08-22T13:55:20.908Z,42.57
2022-08-22T13:57:52.759Z,42.87
2022-08-22T14:00:29.327Z,41.93
2022-08-22T14:03:01.526Z,42.51
2022-08-22T14:05:37.607Z,42.74
2022-08-22T14:08:12.813Z,42.84
2022-08-22T14:10:45.485Z,43.33
2022-08-22T14:13:17.523Z,42.01
2022-08-22T14:15:49.366Z,43.41
2022-08-22T14:18:29.975Z,43.44
2022-08-22T14:21:02.158Z,43.46
2022-08-22T14:23:34.459Z,43.06
2022-08-22T14:26:06.369Z,43.46
2022-08-22T14:28:44.306Z,42.85
2022-08-22T14:31:16.186Z,42.01
2022-08-22T14:33:48.893Z,42.37
2022-08-22T14:36:21.038Z,42.17
2022-08-22T14:38:53.237Z,43.09
2022-08-22T14:41:25.222Z,42.72
2022-08-22T14:43:56.948Z,42.62
2022-08-22T14:46:28.938Z,42.56
2022-08-22T14:49:00.727Z,42.88
2022-08-22T14:51:32.983Z,42.96
2022-08-22T14:54:04.518Z,42.50
2022-08-22T14:56:36.679Z,43.06
2022-08-22T14:59:08.219Z,42.19
2022-08-22T15:01:40.143Z,42.33
2022-08-22T15:04:14.591Z,42.15
2022-08-22T15:06:50.779Z,42.49
2022-08-22T15:09:22.430Z,42.49
2022-08-22T15:11:54.276Z,43.85
2022-08-22T15:14:28.024Z,43.28
2022-08-22T15:16:59.901Z,42.90
2022-08-22T15:19:31.434Z,43.13
2022-08-22T15:22:03.419Z,42.99
2022-08-22T15:24:35.331Z,43.67
2022-08-22T15:27:07.172Z,44.10
2022-08-22T15:29:39.559Z,42.77
2022-08-22T15:32:11.763Z,42.42
2022-08-22T15:34:47.471Z,41.91
2022-08-22T15:37:24.409Z,42.92
2022-08-22T15:39:55.978Z,43.50
2022-08-22T15:42:27.871Z,43.00
2022-08-22T15:44:59.407Z,42.26
2022-08-22T15:47:34.858Z,43.15
2022-08-22T15:50:07.761Z,43.18
2022-08-22T15:52:39.610Z,43.40
2022-08-22T15:55:13.663Z,44.19
2022-08-22T15:57:45.243Z,44.91
2022-08-22T16:00:17.353Z,44.66
2022-08-22T16:02:48.904Z,45.57
2022-08-22T16:05:20.484Z,45.74
2022-08-22T16:07:52.400Z,45.07
2022-08-22T16:10:23.941Z,45.72
2022-08-22T16:12:55.899Z,45.60
2022-08-22T16:15:27.438Z,45.67
2022-08-22T16:18:02.319Z,44.46
2022-08-22T16:20:33.846Z,45.90
2022-08-22T16:23:05.439Z,45.61
2022-08-22T16:25:36.971Z,45.96
2022-08-22T16:28:09.009Z,46.76
2022-08-22T16:30:40.619Z,47.83
2022-08-22T16:33:18.391Z,48.58
2022-08-22T16:35:50.702Z,48.16
2022-08-22T16:38:22.214Z,48.50
2022-08-22T16:40:54.073Z,49.38
2022-08-22T16:43:28.953Z,49.13
2022-08-22T16:46:00.988Z,49.77
2022-08-22T16:48:32.571Z,49.64
2022-08-22T16:51:04.424Z,50.28
2022-08-22T16:53:35.971Z,50.48
2022-08-22T16:56:07.659Z,50.69
2022-08-22T16:58:56.168Z,51.52
2022-08-22T17:01:29.386Z,52.10
2022-08-22T17:04:01.038Z,52.61
2022-08-22T17:06:33.788Z,52.28
2022-08-22T17:09:05.340Z,53.12
2022-08-22T17:11:36.991Z,53.42
2022-08-22T17:14:08.518Z,53.21
2022-08-22T17:16:40.472Z,53.87
2022-08-22T17:19:12.020Z,53.60
2022-08-22T17:21:51.778Z,54.61
2022-08-22T17:24:31.658Z,54.85
2022-08-22T17:27:05.781Z,55.36
2022-08-22T17:29:38.185Z,55.61
2022-08-22T17:32:10.112Z,56.13
2022-08-22T17:34:41.688Z,56.30
2022-08-22T17:37:13.829Z,56.67
2022-08-22T17:39:45.405Z,57.57
2022-08-22T17:42:21.165Z,58.40
2022-08-22T17:44:52.887Z,58.63
2022-08-22T17:47:24.844Z,59.48
2022-08-22T17:49:56.400Z,60.11
2022-08-22T17:52:28.234Z,60.94
2022-08-22T17:54:59.766Z,60.54
2022-08-22T17:57:31.675Z,60.84
2022-08-22T18:00:06.105Z,61.02
2022-08-22T18:02:40.151Z,60.59
2022-08-22T18:05:12.059Z,60.54
2022-08-22T18:07:43.604Z,60.40
2022-08-22T18:10:15.591Z,60.54
2022-08-22T18:12:47.245Z,60.48
2022-08-22T18:15:21.136Z,60.71
2022-08-22T18:17:52.681Z,60.90
2022-08-22T18:20:24.220Z,61.35
2022-08-22T18:22:55.805Z,61.29
2022-08-22T18:25:27.553Z,61.61
2022-08-22T18:27:59.236Z,61.86
2022-08-22T18:30:31.174Z,61.62
2022-08-22T18:33:02.837Z,61.92
2022-08-22T18:35:37.062Z,61.88
2022-08-22T18:38:19.644Z,61.77
2022-08-22T18:40:52.353Z,62.64
2022-08-22T18:43:24.095Z,62.90
2022-08-22T18:45:58.187Z,62.76
2022-08-22T18:48:31.816Z,63.19
2022-08-22T18:51:03.642Z,63.22
2022-08-22T18:53:35.152Z,63.79
2022-08-22T18:56:07.055Z,64.17
2022-08-22T18:58:38.759Z,64.68
2022-08-22T19:01:10.683Z,65.26
2022-08-22T19:03:43.848Z,66.01
2022-08-22T19:06:15.826Z,66.38
2022-08-22T19:08:52.999Z,66.79
2022-08-22T19:11:26.635Z,67.18
2022-08-22T19:13:58.169Z,67.33
2022-08-22T19:16:29.717Z,67.43
2022-08-22T19:19:01.296Z,67.94
2022-08-22T19:21:51.902Z,68.25
2022-08-22T19:24:23.461Z,68.49
2022-08-22T19:26:55.380Z,68.43
2022-08-22T19:29:26.979Z,68.73
2022-08-22T19:31:59.029Z,68.84
2022-08-22T19:34:32.608Z,69.09
2022-08-22T19:37:04.529Z,69.52
2022-08-22T19:39:36.072Z,69.22
2022-08-22T19:42:07.919Z,69.88
2022-08-22T19:44:45.800Z,70.21
2022-08-22T19:47:17.355Z,70.78
2022-08-22T19:49:50.109Z,70.25
2022-08-22T19:52:21.768Z,70.73
2022-08-22T19:54:53.319Z,70.93
2022-08-22T19:57:25.152Z,71.23
2022-08-22T20:00:00.139Z,71.32
2022-08-22T20:02:35.980Z,71.50
2022-08-22T20:05:13.339Z,71.05
2022-08-22T20:07:46.183Z,70.87
2022-08-22T20:10:18.084Z,70.50
2022-08-22T20:12:49.610Z,70.85
2022-08-22T20:15:21.868Z,70.54
2022-08-22T20:20:45.228Z,69.27
2022-08-22T20:23:16.764Z,69.57
2022-08-22T20:25:50.446Z,68.41
2022-08-22T20:28:21.974Z,68.44
2022-08-22T20:30:53.813Z,68.79
2022-08-22T20:33:25.339Z,68.52
2022-08-22T20:35:59.500Z,69.40
2022-08-22T20:38:32.272Z,69.83
2022-08-22T20:41:11.125Z,69.77
2022-08-22T20:43:43.352Z,70.12
2022-08-22T20:46:15.542Z,70.17
2022-08-22T20:48:47.111Z,70.24
2022-08-22T20:51:19.349Z,70.82
2022-08-22T20:53:50.870Z,71.12
2022-08-22T20:56:22.716Z,71.73
2022-08-22T20:58:57.068Z,71.61
2022-08-22T21:01:32.592Z,71.84
2022-08-22T21:04:04.141Z,71.42
2022-08-22T21:06:38.010Z,72.06
2022-08-22T21:09:29.550Z,72.73
2022-08-22T21:12:01.387Z,73.12
2022-08-22T21:14:32.956Z,73.46
2022-08-22T21:17:04.850Z,73.36
2022-08-22T21:19:36.723Z,74.33
2022-08-22T21:22:08.240Z,74.49
2022-08-22T21:24:40.289Z,75.11
2022-08-22T21:27:14.183Z,75.36
2022-08-22T21:29:45.761Z,76.02
2022-08-22T21:32:17.277Z,76.07
2022-08-22T21:34:49.277Z,76.17
2022-08-22T21:37:20.857Z,77.07
2022-08-22T21:39:52.743Z,77.52
2022-08-22T21:42:24.314Z,77.78
2022-08-22T21:44:56.423Z,77.83
2022-08-22T21:47:30.766Z,78.29
2022-08-22T21:50:03.303Z,79.06
2022-08-22T21:52:34.857Z,79.91
2022-08-22T21:55:06.863Z,80.93
2022-08-22T21:57:38.481Z,81.07
2022-08-22T22:00:13.274Z,81.96
2022-08-22T22:02:44.839Z,82.47
2022-08-22T22:05:16.991Z,83.92
2022-08-22T22:07:48.689Z,84.59
2022-08-22T22:10:20.647Z,85.06
2022-08-22T22:12:52.521Z,85.22
2022-08-22T22:15:24.488Z,85.84
2022-08-22T22:17:56.189Z,85.85
2022-08-22T22:20:28.097Z,86.32
2022-08-22T22:22:59.818Z,86.08
2022-08-22T22:25:40.446Z,86.49
2022-08-22T22:28:13.773Z,86.41
2022-08-22T22:30:45.379Z,86.30
2022-08-22T22:33:17.312Z,86.11
2022-08-22T22:35:48.855Z,86.63
2022-08-22T22:38:24.096Z,87.23
2022-08-22T22:40:55.933Z,87.64
2022-08-22T22:43:28.056Z,88.26
2022-08-22T22:45:59.584Z,89.49
2022-08-22T22:48:31.628Z,90.94
2022-08-22T22:51:03.151Z,92.63
2022-08-22T22:53:40.369Z,94.51
2022-08-22T22:56:16.023Z,95.76
2022-08-22T22:58:48.011Z,96.99
2022-08-22T23:01:20.871Z,98.04
2022-08-22T23:03:52.795Z,98.44
2022-08-22T23:06:24.333Z,98.79
2022-08-22T23:08:56.359Z,99.20
2022-08-22T23:11:27.878Z,100.00
2022-08-22T23:13:59.891Z,100.00
2022-08-22T23:16:37.020Z,100.00
2022-08-22T23:19:09.530Z,100.00
2022-08-22T23:21:41.054Z,99.68
2022-08-22T23:24:12.945Z,99.28
2022-08-22T23:26:44.465Z,99.28
2022-08-22T23:29:16.330Z,98.34
2022-08-22T23:31:47.882Z,98.12
2022-08-22T23:34:21.982Z,96.71
2022-08-22T23:36:53.838Z,96.28
2022-08-22T23:39:25.357Z,96.35
2022-08-22T23:41:57.300Z,96.50
2022-08-22T23:44:28.899Z,95.93
2022-08-22T23:47:00.749Z,95.67
2022-08-22T23:49:32.304Z,95.52
2022-08-22T23:52:03.887Z,95.12
2022-08-22T23:54:35.409Z,94.69
2022-08-22T23:57:12.196Z,94.60
2022-08-22T23:59:48.440Z,94.18
